Time;durP1;ratioP1;P1;durP2;ratioP2;P2;SDS_P1;SDS_P2;PMS_P1;PMS_P2;Temp;Humidity;BMP_temperature;BMP_pressure;BME280_temperature;BME280_humidity;BME280_pressure;Samples;Min_cycle;Max_cycle;Signal;HPM_P1;HPM_P2
2022/10/03 00:02:34;;;;;;;3.57;3.27;;;;;;;17.42;60.28;99331.47;5132314;27;20189;-55
2022/10/03 00:05:19;;;;;;;3.53;3.23;;;;;;;17.44;60.00;99331.38;5131931;27;20240;-59
2022/10/03 00:08:08;;;;;;;3.37;3.07;;;;;;;17.41;59.63;99321.06;5132094;27;20669;-59
2022/10/03 00:10:46;;;;;;;5.07;2.80;;;;;;;17.39;59.58;99313.28;5132079;27;20201;-60
2022/10/03 00:13:24;;;;;;;3.47;2.80;;;;;;;17.45;59.33;99311.25;5131888;27;20665;-60
2022/10/03 00:16:02;;;;;;;3.10;2.87;;;;;;;17.43;59.26;99309.56;5130868;27;20229;-59
2022/10/03 00:18:43;;;;;;;2.77;2.47;;;;;;;17.44;58.68;99315.66;5132045;27;20204;-59
2022/10/03 00:21:21;;;;;;;1.83;1.73;;;;;;;17.45;58.21;99311.25;5131600;27;20220;-59
2022/10/03 00:23:58;;;;;;;2.97;2.57;;;;;;;17.43;58.87;99312.19;5131248;27;20309;-58
2022/10/03 00:26:35;;;;;;;3.03;2.00;;;;;;;17.34;59.23;99310.09;5131662;27;20193;-58
2022/10/03 00:29:35;;;;;;;2.43;2.33;;;;;;;17.34;59.31;99312.72;5131215;27;20317;-54
2022/10/03 00:32:13;;;;;;;2.47;2.27;;;;;;;17.36;58.92;99304.78;5075801;27;20197;-54
2022/10/03 00:34:53;;;;;;;2.30;2.20;;;;;;;17.15;59.31;99279.81;5131079;27;20568;-59
2022/10/03 00:37:29;;;;;;;2.67;2.47;;;;;;;17.30;59.56;99308.59;5131517;27;20606;-57
2022/10/03 00:40:27;;;;;;;3.10;2.63;;;;;;;17.24;59.23;99297.63;5131362;27;20715;-58
2022/10/03 00:43:35;;;;;;;2.77;2.57;;;;;;;17.19;59.63;99303.13;5131148;27;20202;-58
2022/10/03 00:46:22;;;;;;;3.10;2.90;;;;;;;17.13;59.99;99303.53;5131562;27;20218;-58
2022/10/03 00:49:12;;;;;;;2.90;2.70;;;;;;;17.06;60.04;99299.53;5131151;27;20220;-59
2022/10/03 00:51:53;;;;;;;3.30;3.03;;;;;;;16.95;60.99;99297.56;5131266;27;20646;-54
2022/10/03 00:54:38;;;;;;;3.10;2.90;;;;;;;16.94;61.08;99295.88;5131178;27;20693;-53
2022/10/03 00:57:23;;;;;;;3.20;3.00;;;;;;;16.96;60.83;99285.28;5130890;27;20201;-58
2022/10/03 01:00:04;;;;;;;3.20;2.77;;;;;;;16.93;61.16;99281.06;5131223;27;20211;-58
2022/10/03 01:02:47;;;;;;;2.93;2.80;;;;;;;16.91;60.84;99269.00;5131225;27;20198;-59
2022/10/03 01:05:27;;;;;;;2.93;2.63;;;;;;;16.84;61.25;99272.91;5130967;27;20213;-58
2022/10/03 01:08:37;;;;;;;3.03;2.83;;;;;;;16.81;61.43;99270.47;5130864;27;20189;-54
2022/10/03 01:11:15;;;;;;;2.83;2.40;;;;;;;16.77;61.61;99255.84;5047369;28;20199;-59
2022/10/03 01:13:53;;;;;;;2.50;2.30;;;;;;;16.75;61.61;99241.97;5117934;27;20193;-54
2022/10/03 01:16:30;;;;;;;2.13;2.03;;;;;;;16.83;61.28;99248.47;5130794;27;20292;-54
2022/10/03 01:19:05;;;;;;;2.20;2.10;;;;;;;16.77;61.38;99245.38;5130765;27;20228;-54
2022/10/03 01:21:41;;;;;;;1.90;1.80;;;;;;;16.75;61.80;99240.22;5130932;27;20209;-54
2022/10/03 01:24:32;;;;;;;2.20;2.00;;;;;;;16.82;61.52;99249.38;5130330;27;20230;-60
2022/10/03 01:27:02;;;;;;;2.33;1.90;;;;;;;16.79;61.74;99248.75;5130628;27;20665;-55
2022/10/03 01:32:44;;;;;;;4.23;1.90;;;;;;;16.63;62.58;99260.09;5130060;27;20270;-55
2022/10/03 01:35:21;;;;;;;2.60;1.90;;;;;;;16.52;63.21;99253.75;5130525;27;20193;-59
2022/10/03 01:37:57;;;;;;;3.97;1.90;;;;;;;16.44;64.13;99251.59;5130462;27;20198;-60
2022/10/03 01:40:29;;;;;;;2.20;2.00;;;;;;;16.30;64.16;99226.16;5130433;27;20194;-61
2022/10/03 01:43:10;;;;;;;1.77;1.67;;;;;;;16.31;64.78;99243.56;5130201;27;20216;-55
2022/10/03 01:45:47;;;;;;;6.10;2.07;;;;;;;16.29;64.66;99245.44;5130584;27;20294;-53
2022/10/03 01:48:22;;;;;;;3.83;1.87;;;;;;;16.23;65.56;99245.78;5130509;28;20685;-58
2022/10/03 01:50:59;;;;;;;2.00;1.90;;;;;;;16.20;65.33;99238.09;5130017;28;20225;-57
2022/10/03 01:53:35;;;;;;;1.97;1.87;;;;;;;16.20;65.67;99235.47;5130256;28;20193;-58
2022/10/03 01:56:09;;;;;;;3.43;2.67;;;;;;;16.15;65.81;99241.88;5130305;28;20204;-58
2022/10/03 01:58:47;;;;;;;2.97;2.77;;;;;;;16.11;66.13;99241.22;5130577;28;20216;-58
2022/10/03 02:01:26;;;;;;;3.90;3.40;;;;;;;16.05;65.60;99244.19;5130140;28;20198;-58
2022/10/03 02:04:03;;;;;;;4.67;4.20;;;;;;;15.85;66.16;99215.66;5129995;28;20201;-53
2022/10/03 02:06:42;;;;;;;4.83;4.43;;;;;;;16.06;66.09;99238.00;5130083;28;20222;-58
2022/10/03 02:09:19;;;;;;;6.27;4.10;;;;;;;16.06;66.25;99234.56;5130263;28;20646;-58
2022/10/03 02:12:02;;;;;;;4.00;3.70;;;;;;;16.06;66.48;99231.94;5130132;28;20558;-54
2022/10/03 02:14:40;;;;;;;6.27;3.77;;;;;;;16.02;65.97;99244.38;5130357;28;20190;-54
2022/10/03 02:17:19;;;;;;;3.70;3.40;;;;;;;15.92;66.14;99235.31;5129916;28;20200;-56
2022/10/03 02:19:55;;;;;;;3.47;3.17;;;;;;;15.80;66.63;99238.63;5129850;28;20677;-54
2022/10/03 02:22:33;;;;;;;3.57;3.10;;;;;;;15.75;66.97;99238.84;5129940;28;20204;-55
2022/10/03 02:25:18;;;;;;;3.50;3.30;;;;;;;15.74;67.82;99242.41;5129714;28;20222;-54
2022/10/03 02:28:19;;;;;;;3.70;3.40;;;;;;;15.71;67.87;99234.72;5129725;28;20225;-53
2022/10/03 02:31:06;;;;;;;4.40;3.67;;;;;;;15.70;68.01;99243.47;5126054;28;20198;-54
2022/10/03 02:34:07;;;;;;;4.33;3.53;;;;;;;15.69;68.22;99241.78;5130300;28;20546;-59
2022/10/03 02:36:59;;;;;;;4.20;3.80;;;;;;;15.67;68.62;99229.75;5129912;28;20193;-59
2022/10/03 02:39:49;;;;;;;6.10;3.83;;;;;;;15.68;68.73;99232.28;5129791;28;20191;-58
2022/10/03 02:43:05;;;;;;;5.90;4.97;;;;;;;15.78;68.46;99230.84;5130003;28;20201;-58
2022/10/03 02:46:10;;;;;;;6.20;5.27;;;;;;;15.88;68.02;99226.81;5133407;27;20267;-58
2022/10/03 02:49:34;;;;;;;7.50;5.80;;;;;;;15.88;68.04;99224.19;5065725;27;20198;-58
2022/10/03 02:52:29;;;;;;;8.30;6.03;;;;;;;15.87;68.02;99226.88;5133488;27;20204;-59
2022/10/03 02:55:26;;;;;;;6.83;6.13;;;;;;;15.93;67.86;99226.53;5098287;27;20204;-58
2022/10/03 02:58:25;;;;;;;5.80;5.30;;;;;;;15.91;68.69;99234.47;5133284;27;20284;-60
2022/10/03 03:01:16;;;;;;;5.70;5.23;;;;;;;15.83;69.94;99222.72;5133300;27;20194;-60
2022/10/03 03:04:22;;;;;;;6.93;6.23;;;;;;;15.72;71.38;99217.25;5129448;27;20273;-58
2022/10/03 03:07:17;;;;;;;7.83;5.43;;;;;;;15.71;71.50;99213.78;5124893;27;20194;-59
2022/10/03 03:10:06;;;;;;;11.30;7.13;;;;;;;15.70;70.35;99219.09;5133416;27;20747;-58
2022/10/03 03:13:11;;;;;;;12.77;7.37;;;;;;;15.64;69.77;99211.59;5132996;27;20196;-59
2022/10/03 03:16:25;;;;;;;7.70;6.97;;;;;;;15.57;70.24;99206.72;5133128;27;20199;-58
2022/10/03 03:19:06;;;;;;;18.00;7.40;;;;;;;15.53;71.13;99209.53;5132775;27;20570;-58
2022/10/03 03:21:42;;;;;;;11.40;9.13;;;;;;;15.51;71.61;99203.53;5133202;27;20590;-58
2022/10/03 03:24:36;;;;;;;14.17;9.83;;;;;;;15.49;72.34;99200.97;5132659;27;20198;-58
2022/10/03 03:27:20;;;;;;;15.13;9.97;;;;;;;15.42;72.74;99186.56;5130257;27;20280;-58
2022/10/03 03:29:55;;;;;;;20.83;11.00;;;;;;;15.30;74.04;99191.59;5131801;27;20233;-59
2022/10/03 03:32:35;;;;;;;23.67;13.20;;;;;;;15.24;74.25;99185.75;5130901;27;20204;-59
2022/10/03 03:35:11;;;;;;;25.33;14.27;;;;;;;15.24;73.59;99183.13;5130327;27;20272;-59
2022/10/03 03:37:52;;;;;;;23.27;15.00;;;;;;;15.23;73.33;99178.88;5129613;27;20236;-58
2022/10/03 03:40:45;;;;;;;19.47;14.13;;;;;;;15.21;73.14;99175.47;5132067;27;20197;-58
2022/10/03 03:43:37;;;;;;;16.80;13.10;;;;;;;15.21;73.13;99180.72;5128157;27;20200;-57
2022/10/03 03:46:19;;;;;;;13.37;8.20;;;;;;;15.18;71.85;99167.78;5128203;27;20220;-58
2022/10/03 03:49:00;;;;;;;16.37;8.47;;;;;;;15.21;71.48;99167.63;5132554;27;20233;-58
2022/10/03 03:51:34;;;;;;;7.60;6.47;;;;;;;15.31;71.08;99164.53;5132431;27;20202;-58
2022/10/03 03:54:46;;;;;;;7.00;5.50;;;;;;;15.28;70.57;99165.53;5132046;27;20188;-58
2022/10/03 03:58:02;;;;;;;9.63;5.90;;;;;;;15.31;69.51;99174.97;5132331;27;20205;-59
2022/10/03 04:00:42;;;;;;;12.80;6.43;;;;;;;15.27;69.52;99169.91;5132115;27;20281;-57
2022/10/03 04:03:28;;;;;;;16.83;10.43;;;;;;;15.26;69.38;99160.38;5131916;27;20295;-59
2022/10/03 04:06:17;;;;;;;26.33;16.43;;;;;;;15.26;69.01;99168.22;5127689;27;20596;-53
2022/10/03 04:09:07;;;;;;;32.63;18.83;;;;;;;15.37;68.44;99161.56;5130342;27;20190;-53
2022/10/03 04:11:48;;;;;;;18.43;11.27;;;;;;;15.37;68.23;99166.78;5128610;27;20206;-52
2022/10/03 04:14:45;;;;;;;12.43;7.33;;;;;;;15.40;68.10;99153.56;5111493;28;20309;-55
2022/10/03 04:20:26;;;;;;;9.70;5.50;;;;;;;15.38;68.42;99152.78;5130498;27;20192;-53
2022/10/03 04:23:04;;;;;;;4.83;4.07;;;;;;;15.38;67.68;99145.78;5129910;27;20634;-53
2022/10/03 04:25:46;;;;;;;6.93;4.63;;;;;;;15.43;67.77;99148.19;5130839;27;20724;-54
2022/10/03 04:28:38;;;;;;;9.30;6.70;;;;;;;15.40;68.04;99138.72;5131381;27;20233;-52
2022/10/03 04:31:18;;;;;;;10.97;7.53;;;;;;;15.48;68.12;99136.53;5131472;27;20287;-57
2022/10/03 04:34:03;;;;;;;11.00;8.57;;;;;;;15.45;68.22;99135.88;5131784;27;20664;-54
2022/10/03 04:37:11;;;;;;;19.47;11.10;;;;;;;15.42;68.49;99123.78;5131291;27;20205;-59
2022/10/03 04:39:47;;;;;;;21.30;13.10;;;;;;;15.46;68.02;99127.91;5131257;27;20230;-54
2022/10/03 04:42:27;;;;;;;12.97;8.87;;;;;;;15.46;68.22;99133.13;5130754;27;20264;-60
2022/10/03 04:45:18;;;;;;;9.33;6.63;;;;;;;15.48;68.30;99140.91;5131253;27;20696;-54
2022/10/03 04:47:51;;;;;;;4.83;4.00;;;;;;;15.52;67.50;99137.22;5119412;27;20668;-59
2022/10/03 04:50:33;;;;;;;6.33;3.00;;;;;;;15.59;67.11;99155.13;5131465;27;20276;-60
2022/10/03 04:53:19;;;;;;;3.50;3.30;;;;;;;15.64;66.94;99157.50;5131271;27;20689;-60
2022/10/03 04:55:49;;;;;;;3.27;2.97;;;;;;;15.60;67.27;99151.56;5129055;27;20661;-60
2022/10/03 04:58:30;;;;;;;7.87;3.80;;;;;;;15.68;66.89;99152.94;5129419;27;20221;-60
2022/10/03 05:01:06;;;;;;;4.13;3.17;;;;;;;15.72;67.21;99139.59;5127646;27;20192;-60
2022/10/03 05:03:43;;;;;;;4.30;2.73;;;;;;;15.63;67.24;99136.66;5127207;27;20200;-61
2022/10/03 05:06:30;;;;;;;5.17;4.23;;;;;;;15.80;66.86;99155.69;5129655;27;20222;-59
2022/10/03 05:09:04;;;;;;;6.50;3.00;;;;;;;15.80;66.67;99147.84;5127053;27;20582;-59
2022/10/03 05:11:48;;;;;;;4.73;2.90;;;;;;;15.89;65.90;99149.97;5129419;27;20277;-60
2022/10/03 05:14:24;;;;;;;2.87;2.03;;;;;;;15.88;65.66;99150.06;5127312;27;20201;-59
2022/10/03 05:17:00;;;;;;;2.20;2.00;;;;;;;15.88;65.55;99148.28;5126696;27;20729;-59
2022/10/03 05:19:54;;;;;;;2.10;1.97;;;;;;;15.97;65.79;99154.78;5129242;27;20197;-60
2022/10/03 05:22:39;;;;;;;2.23;2.03;;;;;;;16.05;65.56;99154.31;5127977;27;20202;-60
2022/10/03 05:25:20;;;;;;;2.40;2.20;;;;;;;16.20;65.84;99156.91;5128495;27;20678;-59
2022/10/03 05:27:54;;;;;;;8.90;2.90;;;;;;;16.37;65.70;99152.47;5129384;27;20713;-60
2022/10/03 05:30:35;;;;;;;3.13;2.73;;;;;;;16.47;64.65;99151.03;5126781;27;20297;-60
2022/10/03 05:33:13;;;;;;;6.40;2.97;;;;;;;16.50;64.27;99151.66;5126730;27;20190;-60
2022/10/03 05:35:53;;;;;;;2.90;2.70;;;;;;;16.41;64.33;99139.13;5126842;27;20198;-59
2022/10/03 05:38:39;;;;;;;6.10;3.10;;;;;;;16.50;64.88;99154.28;5129331;27;20198;-60
2022/10/03 05:41:18;;;;;;;6.43;3.00;;;;;;;16.56;64.53;99153.09;5126013;27;20186;-59
2022/10/03 05:43:57;;;;;;;7.67;2.60;;;;;;;16.76;64.01;99162.44;5128942;27;20201;-60
2022/10/03 05:46:41;;;;;;;3.33;2.60;;;;;;;16.89;63.35;99160.75;5128738;27;20213;-54
2022/10/03 05:49:31;;;;;;;3.03;2.83;;;;;;;17.04;62.85;99152.78;5125828;27;20193;-54
2022/10/03 05:52:16;;;;;;;2.80;2.60;;;;;;;17.06;62.31;99156.16;5127749;28;20198;-54
2022/10/03 05:55:01;;;;;;;4.90;2.40;;;;;;;17.14;62.27;99154.88;5128872;28;20204;-57
2022/10/03 05:58:03;;;;;;;3.10;2.90;;;;;;;17.08;62.68;99153.47;5128612;28;20584;-59
2022/10/03 06:00:49;;;;;;;6.83;2.73;;;;;;;17.22;61.99;99148.22;5128762;28;20620;-58
2022/10/03 06:03:56;;;;;;;4.90;3.10;;;;;;;17.25;61.95;99148.03;5126488;28;20235;-59
2022/10/03 06:06:33;;;;;;;6.40;3.17;;;;;;;17.25;61.81;99145.41;5127224;28;20239;-60
2022/10/03 06:09:30;;;;;;;8.43;2.80;;;;;;;17.54;61.85;99155.84;5126680;28;20393;-60
2022/10/03 06:12:06;;;;;;;3.93;2.90;;;;;;;17.72;61.17;99149.47;5129397;28;20223;-61
2022/10/03 06:14:45;;;;;;;9.43;2.97;;;;;;;17.86;60.60;99151.22;5127440;28;20281;-60
2022/10/03 06:17:33;;;;;;;6.03;2.93;;;;;;;17.91;60.35;99147.38;5129873;28;20263;-61
2022/10/03 06:20:18;;;;;;;10.13;3.43;;;;;;;18.09;59.94;99146.16;5133199;27;20297;-60
2022/10/03 06:23:31;;;;;;;3.95;2.90;;;;;;;18.12;60.05;99148.59;5133263;27;20198;-60
2022/10/03 06:26:40;;;;;;;5.40;2.50;;;;;;;18.22;59.39;99151.44;5126763;27;20610;-60
2022/10/03 06:29:46;;;;;;;2.58;2.05;;;;;;;18.93;58.09;99152.84;5091502;27;20313;-60
2022/10/03 06:32:44;;;;;;;6.32;2.75;;;;;;;19.74;55.79;99145.38;5133778;27;20193;-61
2022/10/03 06:35:46;;;;;;;3.40;3.10;;;;;;;20.60;52.80;99160.03;5093666;27;20209;-61
2022/10/03 06:38:44;;;;;;;5.60;2.60;;;;;;;21.80;49.47;99168.22;5128406;27;20280;-61
2022/10/03 06:41:45;;;;;;;8.55;2.60;;;;;;;22.31;47.26;99157.91;5133943;27;20650;-60
2022/10/03 06:44:23;;;;;;;7.00;2.40;;;;;;;23.71;44.47;99155.63;5087867;27;20596;-61
2022/10/03 06:47:26;;;;;;;3.75;2.58;;;;;;;26.79;37.89;99159.84;5133786;27;20782;-60
2022/10/03 06:50:25;;;;;;;3.92;2.33;;;;;;;29.96;32.29;99169.06;5120312;27;20197;-61
2022/10/03 06:53:18;;;;;;;5.75;2.90;;;;;;;31.77;28.98;99162.72;5133552;27;20282;-61
2022/10/03 06:56:31;;;;;;;5.72;3.22;;;;;;;32.27;27.95;99151.97;5133481;27;20197;-60
2022/10/03 06:59:20;;;;;;;4.40;2.83;;;;;;;33.81;26.64;99161.75;5133024;27;20628;-61
2022/10/03 07:02:25;;;;;;;3.08;2.72;;;;;;;36.13;24.01;99160.50;5133163;27;20194;-60
2022/10/03 07:05:21;;;;;;;5.05;2.90;;;;;;;34.73;24.33;99153.84;5097177;27;20559;-60
2022/10/03 07:08:28;;;;;;;7.10;2.67;;;;;;;34.73;24.59;99161.09;5132662;27;20831;-61
2022/10/03 07:11:15;;;;;;;4.90;2.85;;;;;;;35.16;24.05;99162.31;5132341;27;20708;-60
2022/10/03 07:14:18;;;;;;;6.40;2.20;;;;;;;32.87;25.97;99150.63;5132881;27;20190;-61
2022/10/03 07:17:14;;;;;;;4.95;2.67;;;;;;;31.23;27.67;99155.00;5132672;27;20313;-61
2022/10/03 07:20:13;;;;;;;11.75;3.10;;;;;;;29.59;29.58;99141.16;5132337;27;20198;-60
2022/10/03 07:23:30;;;;;;;3.90;2.38;;;;;;;28.22;31.89;99142.19;5131085;27;20581;-60
2022/10/03 07:26:31;;;;;;;3.85;1.60;;;;;;;27.33;33.03;99128.56;5131024;27;20596;-60
2022/10/03 07:29:26;;;;;;;3.22;1.98;;;;;;;25.81;35.83;99128.03;5130028;27;20305;-60
2022/10/03 07:32:21;;;;;;;5.22;2.33;;;;;;;25.20;36.75;99121.47;5129708;27;20186;-59
2022/10/03 07:35:17;;;;;;;2.20;1.70;;;;;;;24.55;39.17;99123.19;5129459;27;20190;-60
2022/10/03 07:41:32;;;;;;;1.75;1.65;;;;;;;24.73;38.75;99117.13;5104820;27;20674;-59
2022/10/03 07:44:31;;;;;;;3.28;3.08;;;;;;;24.49;40.07;99107.81;5132092;27;20197;-60
2022/10/03 07:47:38;;;;;;;6.93;2.70;;;;;;;24.29;40.63;99116.78;5129163;27;20606;-60
2022/10/03 07:50:31;;;;;;;3.35;3.05;;;;;;;24.32;41.27;99119.16;5097591;27;20283;-60
2022/10/03 07:53:16;;;;;;;6.82;3.95;;;;;;;24.23;40.88;99120.00;5132113;27;20205;-60
2022/10/03 07:55:59;;;;;;;5.38;4.00;;;;;;;24.35;40.88;99124.19;5132221;27;20193;-59
2022/10/03 07:58:41;;;;;;;7.22;3.47;;;;;;;24.14;41.64;99131.44;5131784;27;20198;-60
2022/10/03 08:01:24;;;;;;;9.88;3.67;;;;;;;23.93;41.86;99126.22;5132022;27;20194;-60
2022/10/03 08:04:28;;;;;;;4.80;3.33;;;;;;;24.10;41.83;99111.44;5131811;27;20212;-60
2022/10/03 08:07:09;;;;;;;3.13;2.92;;;;;;;24.25;41.24;99123.34;5048477;28;20220;-60
2022/10/03 08:09:54;;;;;;;6.82;3.25;;;;;;;24.48;41.13;99116.78;5120304;27;20293;-60
2022/10/03 08:12:42;;;;;;;6.50;2.63;;;;;;;24.57;41.29;99121.22;5131947;27;20255;-60
2022/10/03 08:15:24;;;;;;;6.72;3.60;;;;;;;23.92;40.92;99121.91;5131159;27;20198;-60
2022/10/03 08:18:36;;;;;;;13.02;5.93;;;;;;;23.54;42.45;99122.69;5131712;27;20289;-60
2022/10/03 08:21:05;;;;;;;4.13;3.72;;;;;;;23.37;43.65;99128.56;5131474;27;20196;-60
2022/10/03 08:24:07;;;;;;;9.63;3.80;;;;;;;23.42;44.07;99124.56;5131603;27;20197;-60
2022/10/03 08:27:01;;;;;;;10.25;3.92;;;;;;;23.26;44.41;99126.03;5131637;27;20224;-60
2022/10/03 08:30:05;;;;;;;5.63;3.63;;;;;;;23.00;45.58;99121.22;5131600;27;20319;-60
2022/10/03 08:33:16;;;;;;;9.55;3.28;;;;;;;22.90;46.00;99119.47;5126779;27;20194;-60
2022/10/03 08:36:27;;;;;;;10.82;5.93;;;;;;;22.71;45.70;99114.88;5130431;27;20186;-59
2022/10/03 08:39:24;;;;;;;9.35;4.30;;;;;;;22.45;47.05;99120.59;5130709;27;20280;-61
2022/10/03 08:42:28;;;;;;;7.30;3.95;;;;;;;22.13;47.93;99129.50;5129828;27;20201;-61
2022/10/03 08:45:26;;;;;;;6.28;4.10;;;;;;;21.97;48.73;99119.31;5131496;27;20598;-60
2022/10/03 08:48:35;;;;;;;7.70;3.65;;;;;;;22.10;48.72;99138.53;5112270;27;20206;-60
2022/10/03 08:51:39;;;;;;;6.72;4.05;;;;;;;22.02;49.11;99128.56;5129796;27;20638;-60
2022/10/03 08:54:26;;;;;;;5.38;3.35;;;;;;;22.03;49.66;99132.06;5129255;27;20225;-60
2022/10/03 08:57:18;;;;;;;5.05;3.08;;;;;;;21.94;49.43;99143.34;5130923;27;20194;-60
2022/10/03 09:00:14;;;;;;;5.25;3.50;;;;;;;21.86;48.56;99143.13;5131081;27;20513;-60
2022/10/03 09:03:13;;;;;;;6.40;3.35;;;;;;;21.81;50.43;99148.78;5130486;27;20194;-52
2022/10/03 09:06:36;;;;;;;8.23;3.00;;;;;;;21.83;51.45;99146.84;5130675;27;20198;-53
2022/10/03 09:09:30;;;;;;;6.85;3.25;;;;;;;21.94;51.26;99151.28;5130509;27;20209;-59
2022/10/03 09:12:43;;;;;;;5.10;2.78;;;;;;;22.03;50.91;99161.13;5130752;27;20200;-57
2022/10/03 09:15:37;;;;;;;5.75;2.55;;;;;;;22.17;50.31;99168.78;5047011;28;20226;-58
2022/10/03 09:18:33;;;;;;;3.45;2.70;;;;;;;22.35;49.70;99172.53;5047140;28;20189;-57
2022/10/03 09:21:51;;;;;;;8.80;2.97;;;;;;;22.69;50.01;99172.38;5123967;27;20208;-57
2022/10/03 09:24:51;;;;;;;9.15;3.30;;;;;;;22.67;50.66;99171.69;5130441;27;20251;-60
2022/10/03 09:27:50;;;;;;;3.47;2.97;;;;;;;22.86;49.77;99161.25;5128054;27;20274;-57
2022/10/03 09:30:23;;;;;;;3.83;3.17;;;;;;;22.96;50.10;99164.78;5098245;27;20194;-58
2022/10/03 09:33:27;;;;;;;4.80;2.90;;;;;;;22.95;50.90;99172.84;5127841;27;20258;-58
2022/10/03 09:36:11;;;;;;;4.30;2.90;;;;;;;22.80;51.78;99169.69;5128496;27;20190;-58
2022/10/03 09:39:03;;;;;;;3.17;2.70;;;;;;;22.57;52.91;99160.19;5129100;27;20509;-58
2022/10/03 09:42:00;;;;;;;5.40;2.95;;;;;;;22.56;52.87;99156.72;5130615;27;20205;-59
2022/10/03 09:45:00;;;;;;;5.25;3.13;;;;;;;22.57;53.68;99160.19;5130236;27;20198;-57
2022/10/03 09:48:16;;;;;;;5.72;3.90;;;;;;;22.71;52.37;99162.50;5129822;27;20217;-58
2022/10/03 09:51:12;;;;;;;3.72;3.42;;;;;;;22.74;52.96;99170.19;5129767;27;20205;-58
2022/10/03 09:54:23;;;;;;;4.43;2.80;;;;;;;22.68;53.69;99168.91;5127132;27;20194;-57
2022/10/03 09:57:37;;;;;;;10.70;3.17;;;;;;;22.45;55.84;99167.34;5129672;28;20193;-58
2022/10/03 10:00:24;;;;;;;5.43;2.25;;;;;;;22.38;56.62;99159.06;5130208;28;20660;-52
2022/10/03 10:03:18;;;;;;;3.03;2.40;;;;;;;22.27;56.97;99169.69;5129892;28;20243;-53
2022/10/03 10:06:06;;;;;;;4.90;2.30;;;;;;;22.12;57.61;99165.69;5129917;28;20203;-54
2022/10/03 10:09:01;;;;;;;2.88;1.98;;;;;;;21.97;58.04;99166.88;5129997;28;20217;-53
2022/10/03 10:11:54;;;;;;;2.35;2.25;;;;;;;21.78;58.85;99172.81;5122462;28;20277;-53
2022/10/03 10:14:41;;;;;;;2.35;2.22;;;;;;;21.68;59.04;99185.91;5127123;28;20281;-56
2022/10/03 10:17:48;;;;;;;12.00;2.33;;;;;;;21.62;60.35;99177.66;5127481;28;20186;-54
2022/10/03 10:20:39;;;;;;;2.72;2.08;;;;;;;21.40;61.09;99198.78;5129543;28;20220;-59
2022/10/03 10:23:26;;;;;;;4.93;3.58;;;;;;;21.25;61.38;99188.44;5129814;28;20233;-59
2022/10/03 10:26:20;;;;;;;15.70;2.00;;;;;;;21.11;61.66;99199.19;5129932;28;20696;-54
2022/10/03 10:29:29;;;;;;;11.88;2.65;;;;;;;20.84;62.45;99207.44;5129683;28;20633;-53
2022/10/03 10:32:38;;;;;;;3.58;3.28;;;;;;;20.76;63.12;99209.84;5129918;28;20198;-54
2022/10/03 10:35:38;;;;;;;4.28;2.10;;;;;;;20.63;63.80;99209.91;5129074;28;20508;-54
2022/10/03 10:38:24;;;;;;;4.90;3.13;;;;;;;20.45;64.49;99211.25;5094105;28;20196;-55
2022/10/03 10:41:34;;;;;;;2.28;2.10;;;;;;;20.47;64.37;99219.06;5126969;28;20717;-54
2022/10/03 10:44:52;;;;;;;4.18;1.80;;;;;;;20.34;65.37;99216.44;5128052;28;20588;-55
2022/10/03 10:47:48;;;;;;;5.75;3.40;;;;;;;20.29;66.41;99223.88;5074077;28;20225;-53
2022/10/03 10:50:51;;;;;;;5.97;2.00;;;;;;;20.19;65.92;99233.41;5109018;28;20195;-55
2022/10/03 10:53:55;;;;;;;2.35;1.70;;;;;;;20.11;66.34;99218.13;5108776;28;20247;-59
2022/10/03 10:57:10;;;;;;;2.55;1.80;;;;;;;20.05;67.64;99226.50;5112209;28;20714;-59
2022/10/03 11:00:17;;;;;;;2.10;1.90;;;;;;;20.05;69.88;99228.28;5109246;28;20222;-58
2022/10/03 11:03:53;;;;;;;4.97;1.77;;;;;;;20.01;73.49;99234.72;5111250;28;20186;-53
2022/10/03 11:06:52;;;;;;;4.22;3.88;;;;;;;19.78;75.33;99196.84;5128101;27;20353;-60
2022/10/03 11:09:46;;;;;;;6.22;5.55;;;;;;;19.91;77.82;99226.63;5132546;27;20575;-60
2022/10/03 11:13:05;;;;;;;9.07;2.92;;;;;;;19.97;78.91;99228.84;5131488;27;20194;-60
2022/10/03 11:16:15;;;;;;;4.68;2.28;;;;;;;20.18;81.10;99221.19;5131219;27;20281;-60
2022/10/03 11:19:15;;;;;;;5.22;2.58;;;;;;;20.16;83.44;99215.16;5130129;27;20194;-59
2022/10/03 11:22:24;;;;;;;2.47;2.28;;;;;;;20.38;82.74;99215.31;5126409;27;20190;-59
2022/10/03 11:25:31;;;;;;;4.22;2.55;;;;;;;20.47;82.60;99208.50;5131031;27;20189;-59
2022/10/03 11:28:52;;;;;;;7.07;2.60;;;;;;;20.42;85.21;99211.50;5131576;27;20320;-54
2022/10/03 11:32:08;;;;;;;3.67;2.55;;;;;;;20.32;85.54;99202.53;5132072;27;20583;-54
2022/10/03 11:35:12;;;;;;;8.77;2.55;;;;;;;20.28;86.11;99194.03;5131402;27;20212;-54
2022/10/03 11:37:46;;;;;;;2.50;2.30;;;;;;;20.34;84.89;99202.44;5132063;27;20582;-54
2022/10/03 11:40:27;;;;;;;2.90;2.60;;;;;;;20.28;84.02;99201.09;5131889;27;20201;-54
2022/10/03 11:43:12;;;;;;;3.25;2.40;;;;;;;20.38;82.58;99199.50;5131932;27;20259;-54
2022/10/03 11:45:46;;;;;;;3.63;2.70;;;;;;;20.27;83.75;99197.63;5129435;27;20302;-54
2022/10/03 11:48:34;;;;;;;8.25;2.53;;;;;;;20.13;83.45;99199.56;5131786;27;20601;-54
2022/10/03 11:51:07;;;;;;;5.00;2.70;;;;;;;19.95;83.95;99185.97;5130161;27;20193;-53
2022/10/03 11:53:42;;;;;;;3.00;2.80;;;;;;;19.99;83.33;99187.41;5131899;27;20202;-54
2022/10/03 11:56:34;;;;;;;4.47;2.97;;;;;;;19.90;82.31;99185.44;5131542;27;20189;-59
2022/10/03 11:59:33;;;;;;;8.13;2.60;;;;;;;19.84;82.18;99191.16;5129575;27;20613;-59
2022/10/03 12:02:13;;;;;;;3.50;3.30;;;;;;;19.90;81.89;99186.28;5128869;27;20198;-53
2022/10/03 12:04:58;;;;;;;2.83;2.67;;;;;;;20.00;80.94;99189.09;5129248;27;20236;-54
2022/10/03 12:10:38;;;;;;;3.40;3.20;;;;;;;20.16;79.51;99179.13;5130004;27;20222;-54
2022/10/03 12:13:13;;;;;;;3.65;3.35;;;;;;;20.24;77.76;99187.28;5130158;27;20182;-60
2022/10/03 12:15:47;;;;;;;3.58;3.38;;;;;;;20.29;77.60;99184.34;5129202;27;20194;-60
2022/10/03 12:18:20;;;;;;;4.53;3.25;;;;;;;20.40;77.09;99180.94;5127605;27;20618;-54
2022/10/03 12:21:08;;;;;;;3.60;3.30;;;;;;;20.53;76.32;99171.16;5130877;27;20197;-54
2022/10/03 12:24:03;;;;;;;3.58;3.28;;;;;;;20.64;75.24;99176.47;5128399;27;20278;-59
2022/10/03 12:26:51;;;;;;;3.88;3.53;;;;;;;20.80;71.31;99184.03;5123854;27;20198;-60
2022/10/03 12:29:21;;;;;;;5.78;3.70;;;;;;;20.93;70.24;99174.22;5128015;27;20615;-54
2022/10/03 12:32:05;;;;;;;3.08;2.88;;;;;;;21.15;68.17;99171.63;5130691;27;20730;-53
2022/10/03 12:34:43;;;;;;;2.88;2.70;;;;;;;21.26;66.56;99174.28;5130775;27;20194;-55
2022/10/03 12:37:39;;;;;;;2.50;2.40;;;;;;;21.41;64.88;99181.97;5129254;27;20723;-54
2022/10/03 12:40:17;;;;;;;5.85;3.17;;;;;;;21.45;65.06;99180.75;5128323;27;20285;-54
2022/10/03 12:42:52;;;;;;;3.63;2.53;;;;;;;21.47;63.64;99184.97;5129030;27;20189;-54
2022/10/03 12:45:27;;;;;;;2.30;2.20;;;;;;;21.49;62.93;99183.06;5128078;27;20186;-53
2022/10/03 12:48:34;;;;;;;5.13;2.50;;;;;;;21.43;62.41;99180.91;5130155;27;20724;-54
2022/10/03 12:51:08;;;;;;;2.40;2.17;;;;;;;21.23;62.13;99177.16;5119277;27;20189;-53
2022/10/03 12:53:47;;;;;;;2.30;2.20;;;;;;;21.19;62.31;99175.75;5130006;27;20664;-54
2022/10/03 12:56:20;;;;;;;2.30;2.10;;;;;;;21.14;62.71;99169.94;5130084;27;20198;-55
2022/10/03 12:59:11;;;;;;;3.33;2.40;;;;;;;21.13;63.12;99177.97;5130828;27;20190;-54
2022/10/03 13:01:52;;;;;;;3.80;2.53;;;;;;;21.08;63.21;99172.22;5130806;27;20190;-53
2022/10/03 13:04:33;;;;;;;2.33;2.13;;;;;;;20.99;62.70;99174.59;5130591;27;20190;-59
2022/10/03 13:07:18;;;;;;;2.40;2.20;;;;;;;20.85;62.91;99169.56;5130759;27;20204;-54
2022/10/03 13:10:09;;;;;;;2.60;2.40;;;;;;;20.93;62.63;99171.59;5130875;27;20279;-54
2022/10/03 13:12:44;;;;;;;3.17;2.35;;;;;;;20.96;61.81;99166.94;5130251;27;20202;-53
2022/10/03 13:15:39;;;;;;;3.55;2.40;;;;;;;21.03;61.26;99165.50;5130783;27;20197;-54
2022/10/03 13:18:17;;;;;;;2.35;2.15;;;;;;;21.13;61.93;99155.06;5091164;27;20186;-53
2022/10/03 13:20:55;;;;;;;2.40;2.13;;;;;;;21.09;62.48;99152.78;5130186;27;20194;-59
2022/10/03 13:23:30;;;;;;;2.30;2.03;;;;;;;21.12;60.31;99156.00;5130082;27;20204;-59
2022/10/03 13:26:07;;;;;;;2.72;2.60;;;;;;;21.11;59.32;99161.41;5129922;27;20707;-53
2022/10/03 13:28:46;;;;;;;2.10;2.00;;;;;;;21.18;58.72;99158.22;5128134;27;20282;-59
2022/10/03 13:31:22;;;;;;;3.90;2.63;;;;;;;21.23;59.56;99156.06;5129905;27;20725;-59